createdAt,value
2022-07-31T00:00:30.520Z,3.22
2022-07-31T00:02:57.692Z,3.40
2022-07-31T00:05:25.691Z,3.00
2022-07-31T00:07:55.176Z,3.42
2022-07-31T00:10:21.909Z,3.28
2022-07-31T00:12:48.495Z,3.58
2022-07-31T00:15:15.419Z,3.35
2022-07-31T00:17:44.955Z,3.90
2022-07-31T00:20:13.727Z,4.70
2022-07-31T00:22:45.092Z,4.50
2022-07-31T00:25:13.635Z,4.30
2022-07-31T00:27:41.001Z,4.13
2022-07-31T00:30:09.142Z,4.75
2022-07-31T00:32:35.894Z,4.60
2022-07-31T00:35:02.833Z,4.38
2022-07-31T00:37:29.494Z,4.50
2022-07-31T00:39:56.525Z,4.47
2022-07-31T00:42:25.009Z,4.50
2022-07-31T00:44:52.299Z,4.40
2022-07-31T00:47:23.894Z,4.50
2022-07-31T00:49:52.505Z,4.95
2022-07-31T00:52:19.613Z,4.00
2022-07-31T00:54:46.447Z,3.72
2022-07-31T00:57:13.097Z,3.72
2022-07-31T00:59:39.733Z,4.05
2022-07-31T01:02:08.389Z,3.65
2022-07-31T01:04:35.090Z,3.60
2022-07-31T01:07:02.668Z,3.47
2022-07-31T01:09:30.052Z,3.50
2022-07-31T01:12:22.772Z,3.38
2022-07-31T01:14:54.810Z,3.22
2022-07-31T01:17:23.270Z,3.40
2022-07-31T01:19:51.813Z,3.30
2022-07-31T01:22:38.854Z,3.15
2022-07-31T01:25:31.781Z,3.20
2022-07-31T01:29:06.441Z,3.95
2022-07-31T01:31:46.625Z,4.18
2022-07-31T01:34:23.207Z,4.57
2022-07-31T01:37:03.253Z,4.38
2022-07-31T01:39:34.134Z,4.68
2022-07-31T01:42:05.233Z,4.70
2022-07-31T01:44:40.551Z,4.55
2022-07-31T01:47:08.825Z,3.33
2022-07-31T01:49:37.669Z,4.05
2022-07-31T01:52:06.104Z,3.95
2022-07-31T01:54:35.213Z,3.55
2022-07-31T01:57:04.356Z,3.63
2022-07-31T01:59:39.193Z,3.50
2022-07-31T02:02:18.112Z,3.20
2022-07-31T02:04:47.248Z,3.17
2022-07-31T02:07:16.259Z,3.50
2022-07-31T02:09:57.078Z,3.03
2022-07-31T02:12:33.847Z,3.10
2022-07-31T02:15:09.643Z,2.53
2022-07-31T02:17:39.350Z,2.70
2022-07-31T02:20:27.964Z,2.50
2022-07-31T02:22:57.322Z,2.67
2022-07-31T02:25:24.918Z,2.58
2022-07-31T02:27:58.557Z,2.38
2022-07-31T02:30:38.998Z,2.60
2022-07-31T02:33:24.163Z,2.10
2022-07-31T02:35:54.612Z,2.13
2022-07-31T02:38:26.175Z,2.08
2022-07-31T02:40:58.772Z,2.15
2022-07-31T02:43:28.218Z,2.03
2022-07-31T02:45:57.629Z,2.20
2022-07-31T02:48:26.508Z,1.80
2022-07-31T02:50:56.314Z,1.80
2022-07-31T02:53:23.480Z,1.58
2022-07-31T02:55:54.020Z,1.70
2022-07-31T03:00:47.557Z,1.63
2022-07-31T03:03:15.597Z,1.23
2022-07-31T03:05:42.730Z,1.70
2022-07-31T03:08:09.476Z,1.35
2022-07-31T03:10:39.744Z,1.52
2022-07-31T03:13:07.245Z,1.58
2022-07-31T03:15:36.315Z,1.30
2022-07-31T03:18:03.581Z,1.67
2022-07-31T03:20:40.763Z,2.33
2022-07-31T03:23:11.323Z,1.38
2022-07-31T03:25:52.168Z,1.90
2022-07-31T03:28:19.647Z,1.60
2022-07-31T03:30:56.911Z,1.50
2022-07-31T03:33:26.994Z,1.35
2022-07-31T03:35:53.992Z,1.38
2022-07-31T03:38:39.728Z,1.35
2022-07-31T03:41:08.414Z,1.30
2022-07-31T03:43:46.827Z,1.15
2022-07-31T03:46:18.649Z,1.27
2022-07-31T03:48:46.632Z,1.25
2022-07-31T03:51:14.062Z,1.30
2022-07-31T03:53:41.681Z,1.60
2022-07-31T03:56:12.077Z,1.33
2022-07-31T03:58:39.010Z,1.35
2022-07-31T04:01:10.348Z,1.10
2022-07-31T04:03:39.639Z,1.20
2022-07-31T04:06:30.690Z,1.40
2022-07-31T04:08:57.638Z,1.35
2022-07-31T04:11:24.329Z,1.30
2022-07-31T04:13:51.039Z,1.48
2022-07-31T04:16:17.865Z,1.38
2022-07-31T04:18:50.730Z,1.40
2022-07-31T04:21:18.026Z,1.33
2022-07-31T04:23:50.226Z,1.25
2022-07-31T04:26:48.537Z,1.40
2022-07-31T04:29:15.881Z,1.42
2022-07-31T04:31:42.638Z,1.10
2022-07-31T04:34:13.022Z,1.33
2022-07-31T04:36:39.754Z,1.52
2022-07-31T04:39:07.307Z,1.50
2022-07-31T04:41:34.116Z,1.27
2022-07-31T04:44:00.908Z,0.93
2022-07-31T04:46:36.953Z,1.55
2022-07-31T04:49:04.416Z,1.67
2022-07-31T04:51:31.466Z,1.30
2022-07-31T04:53:58.241Z,1.47
2022-07-31T04:56:34.335Z,1.45
2022-07-31T04:59:03.703Z,1.42
2022-07-31T05:01:30.791Z,1.50
2022-07-31T05:03:57.929Z,1.60
2022-07-31T05:06:34.602Z,1.30
2022-07-31T05:09:08.117Z,1.40
2022-07-31T05:11:36.968Z,1.08
2022-07-31T05:14:05.872Z,1.55
2022-07-31T05:16:33.096Z,1.08
2022-07-31T05:19:00.611Z,1.45
2022-07-31T05:21:53.995Z,0.80
2022-07-31T05:24:43.065Z,1.45
2022-07-31T05:27:12.836Z,1.40
2022-07-31T05:29:41.825Z,1.38
2022-07-31T05:32:09.176Z,1.33
2022-07-31T05:34:36.947Z,1.23
2022-07-31T05:37:04.532Z,1.17
2022-07-31T05:39:33.068Z,0.80
2022-07-31T05:42:18.343Z,1.33
2022-07-31T05:45:08.734Z,1.13
2022-07-31T05:47:40.073Z,1.45
2022-07-31T05:50:08.468Z,1.40
2022-07-31T05:52:35.207Z,1.38
2022-07-31T05:55:27.955Z,1.33
2022-07-31T05:58:10.008Z,1.45
2022-07-31T06:00:39.567Z,1.20
2022-07-31T06:03:06.887Z,1.40
2022-07-31T06:06:04.112Z,1.50
2022-07-31T06:08:31.492Z,1.17
2022-07-31T06:10:58.673Z,1.23
2022-07-31T06:13:27.514Z,1.50
2022-07-31T06:15:56.139Z,1.20
2022-07-31T06:18:23.878Z,1.40
2022-07-31T06:20:50.822Z,1.52
2022-07-31T06:23:22.741Z,1.77
2022-07-31T06:26:01.568Z,1.70
2022-07-31T06:28:44.763Z,1.60
2022-07-31T06:31:20.264Z,1.42
2022-07-31T06:33:48.814Z,2.00
2022-07-31T06:36:18.903Z,1.50
2022-07-31T06:38:53.081Z,1.63
2022-07-31T06:41:44.690Z,2.10
2022-07-31T06:44:35.338Z,1.80
2022-07-31T06:47:16.510Z,1.60
2022-07-31T06:50:04.775Z,2.05
2022-07-31T06:52:38.486Z,1.90
2022-07-31T06:55:07.059Z,2.17
2022-07-31T06:57:34.252Z,2.20
2022-07-31T07:00:05.492Z,2.55
2022-07-31T07:02:34.642Z,2.45
2022-07-31T07:05:05.638Z,2.97
2022-07-31T07:07:36.564Z,3.30
2022-07-31T07:10:05.832Z,3.90
2022-07-31T07:12:50.834Z,3.80
2022-07-31T07:15:18.188Z,3.33
2022-07-31T07:17:45.016Z,3.47
2022-07-31T07:20:16.743Z,3.30
2022-07-31T07:22:43.575Z,2.50
2022-07-31T07:25:12.905Z,3.58
2022-07-31T07:27:39.858Z,3.40
2022-07-31T07:30:07.379Z,2.45
2022-07-31T07:32:34.072Z,2.53
2022-07-31T07:35:00.832Z,3.30
2022-07-31T07:37:56.797Z,3.30
2022-07-31T07:40:25.455Z,2.88
2022-07-31T07:42:53.085Z,3.10
2022-07-31T07:45:19.896Z,2.88
2022-07-31T07:47:54.034Z,3.33
2022-07-31T07:50:38.568Z,3.20
2022-07-31T07:53:40.824Z,3.75
2022-07-31T07:56:26.154Z,2.70
2022-07-31T07:59:15.106Z,2.90
2022-07-31T08:01:44.702Z,2.90
2022-07-31T08:04:19.345Z,2.50
2022-07-31T08:06:46.463Z,2.47
2022-07-31T08:09:13.496Z,2.70
2022-07-31T08:11:59.424Z,2.72
2022-07-31T08:14:55.389Z,2.75
2022-07-31T08:17:40.514Z,2.35
2022-07-31T08:20:10.217Z,2.20
2022-07-31T08:22:36.889Z,2.75
2022-07-31T08:25:05.390Z,2.47
2022-07-31T08:27:39.889Z,1.92
2022-07-31T08:30:09.924Z,2.63
2022-07-31T08:35:30.998Z,2.58
2022-07-31T08:38:03.834Z,2.88
2022-07-31T08:40:48.009Z,2.40
2022-07-31T08:44:02.102Z,2.60
2022-07-31T08:46:02.958Z,2.05
2022-07-31T08:48:39.877Z,2.30
2022-07-31T08:51:07.501Z,2.70
2022-07-31T08:53:55.149Z,2.88
2022-07-31T08:56:24.378Z,2.40
2022-07-31T08:58:51.658Z,2.17
2022-07-31T09:01:21.263Z,3.30
2022-07-31T09:03:48.830Z,2.03
2022-07-31T09:06:15.962Z,2.05
2022-07-31T09:08:42.644Z,2.55
2022-07-31T09:11:14.366Z,2.63
2022-07-31T09:14:02.657Z,2.38
2022-07-31T09:16:49.102Z,2.40
2022-07-31T09:19:26.354Z,2.05
2022-07-31T09:22:25.279Z,2.90
2022-07-31T09:24:53.525Z,2.10
2022-07-31T09:27:27.785Z,2.50
2022-07-31T09:29:57.465Z,2.60
2022-07-31T09:32:45.947Z,2.50
2022-07-31T09:35:20.304Z,2.40
2022-07-31T09:37:47.716Z,2.50
2022-07-31T09:40:48.326Z,2.03
2022-07-31T09:43:59.688Z,2.60
2022-07-31T09:46:27.914Z,2.00
2022-07-31T09:48:56.665Z,2.30
2022-07-31T09:51:38.368Z,2.05
2022-07-31T09:54:05.352Z,2.47
2022-07-31T09:57:13.456Z,2.00
2022-07-31T09:59:44.216Z,2.05
2022-07-31T10:02:15.133Z,2.08
2022-07-31T10:04:44.046Z,2.00
2022-07-31T10:07:32.565Z,1.70
2022-07-31T10:10:22.805Z,1.85
2022-07-31T10:13:08.135Z,1.80
2022-07-31T10:15:37.420Z,1.63
2022-07-31T10:18:44.606Z,2.00
2022-07-31T10:21:27.811Z,2.10
2022-07-31T10:24:07.644Z,2.08
2022-07-31T10:26:58.978Z,1.83
2022-07-31T10:29:22.690Z,1.77
2022-07-31T10:31:49.458Z,1.45
2022-07-31T10:34:17.104Z,2.33
2022-07-31T10:37:20.523Z,2.15
2022-07-31T10:40:08.973Z,2.00
2022-07-31T10:42:49.860Z,3.05
2022-07-31T10:45:17.862Z,2.30
2022-07-31T10:48:03.125Z,1.90
2022-07-31T10:51:01.425Z,2.28
2022-07-31T10:54:02.584Z,1.67
2022-07-31T10:56:48.264Z,2.08
2022-07-31T10:59:33.598Z,2.10
2022-07-31T11:02:13.904Z,2.30
2022-07-31T11:04:57.464Z,1.88
2022-07-31T11:07:35.646Z,2.10
2022-07-31T11:10:21.779Z,1.92
2022-07-31T11:13:09.055Z,2.10
2022-07-31T11:16:06.165Z,2.28
2022-07-31T11:19:01.331Z,2.35
2022-07-31T11:21:38.864Z,0.90
2022-07-31T11:24:21.679Z,1.95
2022-07-31T11:26:53.440Z,1.88
2022-07-31T11:30:01.488Z,1.75
2022-07-31T11:32:22.959Z,2.10
2022-07-31T11:34:56.900Z,1.98
2022-07-31T11:37:25.185Z,1.65
2022-07-31T11:39:53.748Z,2.05
2022-07-31T11:42:25.339Z,1.92
2022-07-31T11:45:10.768Z,1.95
2022-07-31T11:48:11.321Z,2.13
2022-07-31T11:50:30.953Z,2.63
2022-07-31T11:53:07.029Z,2.38
2022-07-31T11:55:44.565Z,1.70
2022-07-31T11:58:11.413Z,2.17
2022-07-31T12:00:38.122Z,1.80
2022-07-31T12:03:08.609Z,1.83
2022-07-31T12:05:43.980Z,1.88
2022-07-31T12:08:11.740Z,1.80
2022-07-31T12:10:40.031Z,1.55
2022-07-31T12:13:15.459Z,1.63
2022-07-31T12:16:09.427Z,1.92
2022-07-31T12:18:47.689Z,1.60
2022-07-31T12:21:15.021Z,1.48
2022-07-31T12:23:50.784Z,1.42
2022-07-31T12:26:26.386Z,1.08
2022-07-31T12:29:07.740Z,2.00
2022-07-31T12:32:04.107Z,1.50
2022-07-31T12:34:41.458Z,1.60
2022-07-31T12:37:16.973Z,1.65
2022-07-31T12:39:59.171Z,1.40
2022-07-31T12:42:32.444Z,1.40
2022-07-31T12:45:18.393Z,1.33
2022-07-31T12:47:51.911Z,1.10
2022-07-31T12:50:20.482Z,1.40
2022-07-31T12:52:47.650Z,0.90
2022-07-31T12:55:17.232Z,0.75
2022-07-31T12:57:50.424Z,1.17
2022-07-31T13:00:20.190Z,0.80
2022-07-31T13:02:46.910Z,1.00
2022-07-31T13:05:13.600Z,0.98
2022-07-31T13:07:40.388Z,0.60
2022-07-31T13:10:21.254Z,1.03
2022-07-31T13:12:51.496Z,1.13
2022-07-31T13:15:22.624Z,1.10
2022-07-31T13:17:50.245Z,1.10
2022-07-31T13:20:18.196Z,0.88
2022-07-31T13:22:44.968Z,0.90
2022-07-31T13:25:11.781Z,1.27
2022-07-31T13:27:38.511Z,0.80
2022-07-31T13:30:05.865Z,0.90
2022-07-31T13:32:32.587Z,0.68
2022-07-31T13:35:23.595Z,0.50
2022-07-31T13:37:46.959Z,0.45
2022-07-31T13:40:14.311Z,0.68
2022-07-31T13:42:40.946Z,0.70
2022-07-31T13:45:08.777Z,0.63
2022-07-31T13:47:51.585Z,0.63
2022-07-31T13:50:19.356Z,0.60
2022-07-31T13:52:46.092Z,1.00
2022-07-31T13:55:12.895Z,0.80
2022-07-31T13:57:39.566Z,0.60
2022-07-31T14:00:07.386Z,0.67
2022-07-31T14:02:34.139Z,0.88
2022-07-31T14:05:00.961Z,0.80
2022-07-31T14:07:45.347Z,0.50
2022-07-31T14:10:19.900Z,0.50
2022-07-31T14:12:47.306Z,0.50
2022-07-31T14:15:14.029Z,0.32
2022-07-31T14:17:40.752Z,0.40
2022-07-31T14:20:07.962Z,0.40
2022-07-31T14:22:34.609Z,0.30
2022-07-31T14:25:01.542Z,0.40
2022-07-31T14:27:28.218Z,0.40
2022-07-31T14:29:55.226Z,0.37
2022-07-31T14:32:22.443Z,0.50
2022-07-31T14:34:50.218Z,0.40
2022-07-31T14:39:43.869Z,0.55
2022-07-31T14:42:11.047Z,0.30
2022-07-31T14:44:40.153Z,0.55
2022-07-31T14:47:07.079Z,0.40
2022-07-31T14:50:09.249Z,0.47
2022-07-31T14:52:20.927Z,0.40
2022-07-31T14:54:47.562Z,0.40
2022-07-31T14:57:20.227Z,0.50
2022-07-31T14:59:50.399Z,0.57
2022-07-31T15:02:22.274Z,0.52
2022-07-31T15:04:50.338Z,0.40
2022-07-31T15:07:35.218Z,0.30
2022-07-31T15:10:05.532Z,0.63
2022-07-31T15:12:32.560Z,0.60
2022-07-31T15:14:59.352Z,0.47
2022-07-31T15:17:26.161Z,0.50
2022-07-31T15:19:52.856Z,0.50
2022-07-31T15:22:19.593Z,0.50
2022-07-31T15:24:48.697Z,0.50
2022-07-31T15:27:21.840Z,0.50
2022-07-31T15:30:00.728Z,0.57
2022-07-31T15:32:38.401Z,0.40
2022-07-31T15:35:07.043Z,0.63
2022-07-31T15:37:37.518Z,0.63
2022-07-31T15:40:10.103Z,0.40
2022-07-31T15:42:40.504Z,0.40
2022-07-31T15:45:14.270Z,0.60
2022-07-31T15:47:42.208Z,0.70
2022-07-31T15:50:11.381Z,0.75
2022-07-31T15:52:38.122Z,0.82
2022-07-31T15:55:06.412Z,0.80
2022-07-31T15:57:33.498Z,0.88
2022-07-31T16:00:00.424Z,0.70
2022-07-31T16:02:27.301Z,0.70
2022-07-31T16:04:56.582Z,1.13
2022-07-31T16:08:29.337Z,0.70
2022-07-31T16:10:17.895Z,0.65
2022-07-31T16:12:48.503Z,0.80
2022-07-31T16:15:16.521Z,0.65
2022-07-31T16:17:43.649Z,0.77
2022-07-31T16:20:25.777Z,0.63
2022-07-31T16:22:58.687Z,0.60
2022-07-31T16:25:26.698Z,0.50
2022-07-31T16:27:53.915Z,0.50
2022-07-31T16:30:21.764Z,0.50
2022-07-31T16:32:49.307Z,0.60
2022-07-31T16:35:16.185Z,0.70
2022-07-31T16:37:52.686Z,0.60
2022-07-31T16:40:29.216Z,0.93
2022-07-31T16:43:50.955Z,0.57
2022-07-31T16:45:56.164Z,0.70
2022-07-31T16:50:54.062Z,0.60
2022-07-31T16:54:11.700Z,0.57
2022-07-31T16:56:13.285Z,0.50
2022-07-31T16:58:40.043Z,0.70
2022-07-31T17:01:54.114Z,0.60
2022-07-31T17:04:00.630Z,0.52
2022-07-31T17:06:36.548Z,0.60
2022-07-31T17:09:17.340Z,0.50
2022-07-31T17:11:49.823Z,0.60
2022-07-31T17:14:18.166Z,0.40
2022-07-31T17:16:48.160Z,0.50
2022-07-31T17:19:41.813Z,0.60
2022-07-31T17:22:05.045Z,0.50
2022-07-31T17:24:31.943Z,0.50
2022-07-31T17:26:59.744Z,0.60
2022-07-31T17:29:26.483Z,0.52
2022-07-31T17:31:53.190Z,0.90
2022-07-31T17:34:19.852Z,0.60
2022-07-31T17:36:50.055Z,0.70
2022-07-31T17:39:17.035Z,0.70
2022-07-31T17:41:44.097Z,0.70
2022-07-31T17:44:11.647Z,0.60
2022-07-31T17:49:20.507Z,0.65
2022-07-31T17:51:58.912Z,1.00
2022-07-31T17:54:28.663Z,0.95
2022-07-31T17:56:55.416Z,0.85
2022-07-31T17:59:23.166Z,0.60
2022-07-31T18:01:51.475Z,0.80
2022-07-31T18:04:20.253Z,1.10
2022-07-31T18:06:49.413Z,0.80
2022-07-31T18:09:23.047Z,1.10
2022-07-31T18:11:50.693Z,0.75
2022-07-31T18:14:18.220Z,1.00
2022-07-31T18:16:45.605Z,0.70
2022-07-31T18:19:12.644Z,0.83
2022-07-31T18:21:39.446Z,1.08
2022-07-31T18:24:06.659Z,0.80
2022-07-31T18:26:35.284Z,0.82
2022-07-31T18:29:02.467Z,0.90
2022-07-31T18:31:34.381Z,0.90
2022-07-31T18:34:06.078Z,0.65
2022-07-31T18:36:33.828Z,1.15
2022-07-31T18:41:27.817Z,1.20
2022-07-31T18:43:54.563Z,0.90
2022-07-31T18:46:21.358Z,0.70
2022-07-31T18:48:50.848Z,0.70
2022-07-31T18:51:23.124Z,0.70
2022-07-31T18:53:50.689Z,0.80
2022-07-31T18:56:17.587Z,0.70
2022-07-31T18:58:44.426Z,1.07
2022-07-31T19:01:11.231Z,1.08
2022-07-31T19:03:37.945Z,0.93
2022-07-31T19:06:04.840Z,0.80
2022-07-31T19:08:31.531Z,1.03
2022-07-31T19:10:58.396Z,0.70
2022-07-31T19:13:25.072Z,0.50
2022-07-31T19:15:55.515Z,0.65
2022-07-31T19:18:28.120Z,0.80
2022-07-31T19:21:00.390Z,0.70
2022-07-31T19:23:42.005Z,0.60
2022-07-31T19:26:08.735Z,0.60
2022-07-31T19:28:36.172Z,0.68
2022-07-31T19:31:03.156Z,0.73
2022-07-31T19:33:29.978Z,0.70
2022-07-31T19:36:01.894Z,0.90
2022-07-31T19:38:31.155Z,0.80
2022-07-31T19:40:58.050Z,0.50
2022-07-31T19:43:24.952Z,0.70
2022-07-31T19:46:02.462Z,0.67
2022-07-31T19:48:42.740Z,0.70
2022-07-31T19:51:10.485Z,0.63
2022-07-31T19:53:37.542Z,0.80
2022-07-31T19:56:07.099Z,0.80
2022-07-31T19:58:35.511Z,0.80
2022-07-31T20:01:04.475Z,0.77
2022-07-31T20:03:31.316Z,0.60
2022-07-31T20:05:58.256Z,1.50
2022-07-31T20:08:25.000Z,0.80
2022-07-31T20:10:51.746Z,0.90
2022-07-31T20:13:19.171Z,0.80
2022-07-31T20:15:51.282Z,0.95
2022-07-31T20:18:27.280Z,1.20
2022-07-31T20:21:00.079Z,0.82
2022-07-31T20:23:27.488Z,1.10
2022-07-31T20:25:54.646Z,1.42
2022-07-31T20:28:21.804Z,1.20
2022-07-31T20:30:49.013Z,1.45
2022-07-31T20:33:16.142Z,1.40
2022-07-31T20:35:47.753Z,1.10
2022-07-31T20:38:18.238Z,1.40
2022-07-31T20:40:48.204Z,0.93
2022-07-31T20:43:21.638Z,1.38
2022-07-31T20:45:48.509Z,1.40
2022-07-31T20:48:17.696Z,1.53
2022-07-31T20:50:47.900Z,1.48
2022-07-31T20:53:19.368Z,1.95
2022-07-31T20:55:49.222Z,1.90
2022-07-31T20:58:20.520Z,1.90
2022-07-31T21:00:48.068Z,2.08
2022-07-31T21:03:16.149Z,2.10
2022-07-31T21:05:43.426Z,2.38
2022-07-31T21:08:11.187Z,2.47
2022-07-31T21:13:05.338Z,2.13
2022-07-31T21:15:42.526Z,2.47
2022-07-31T21:18:15.612Z,2.35
2022-07-31T21:20:50.701Z,2.78
2022-07-31T21:23:24.710Z,2.47
2022-07-31T21:25:57.054Z,2.97
2022-07-31T21:28:25.901Z,2.67
2022-07-31T21:30:55.695Z,2.65
2022-07-31T21:33:23.908Z,2.63
2022-07-31T21:35:50.837Z,3.38
2022-07-31T21:38:18.063Z,3.40
2022-07-31T21:40:45.810Z,2.70
2022-07-31T21:43:16.854Z,3.50
2022-07-31T21:45:55.722Z,3.00
2022-07-31T21:48:28.669Z,2.97
2022-07-31T21:50:55.576Z,3.10
2022-07-31T21:53:23.529Z,3.13
2022-07-31T21:58:17.121Z,2.57
2022-07-31T22:00:44.411Z,3.43
2022-07-31T22:03:11.127Z,2.67
2022-07-31T22:05:56.594Z,3.22
2022-07-31T22:08:23.440Z,3.40
2022-07-31T22:10:51.255Z,2.75
2022-07-31T22:18:33.323Z,2.85
2022-07-31T22:21:03.228Z,2.88
2022-07-31T22:23:30.450Z,3.28
2022-07-31T22:25:57.632Z,3.25
2022-07-31T22:28:26.447Z,3.33
2022-07-31T22:30:54.497Z,3.35
2022-07-31T22:33:22.180Z,2.92
2022-07-31T22:35:58.812Z,3.42
2022-07-31T22:38:27.930Z,3.10
2022-07-31T22:44:10.588Z,3.05
2022-07-31T22:46:09.818Z,3.23
2022-07-31T22:48:38.786Z,3.35
2022-07-31T22:51:05.632Z,2.85
2022-07-31T22:53:32.413Z,3.35
2022-07-31T22:55:59.019Z,3.25
2022-07-31T22:58:25.634Z,3.22
2022-07-31T23:00:52.352Z,2.75
2022-07-31T23:03:18.975Z,2.90
2022-07-31T23:06:12.218Z,2.65
2022-07-31T23:08:32.463Z,3.35
2022-07-31T23:10:59.195Z,2.83
2022-07-31T23:13:25.881Z,2.95
2022-07-31T23:15:52.513Z,3.60
2022-07-31T23:18:19.271Z,2.80
2022-07-31T23:20:45.894Z,2.97
2022-07-31T23:23:12.513Z,9.90
2022-07-31T23:25:39.256Z,2.75
2022-07-31T23:28:05.865Z,2.42
2022-07-31T23:30:32.545Z,2.92
2022-07-31T23:32:59.179Z,2.30
2022-07-31T23:35:25.830Z,2.85
2022-07-31T23:37:52.517Z,2.70
2022-07-31T23:40:19.164Z,2.40
2022-07-31T23:42:45.840Z,2.42
2022-07-31T23:45:15.661Z,2.20
2022-07-31T23:47:46.134Z,2.47
2022-07-31T23:50:15.173Z,2.53
2022-07-31T23:52:42.820Z,2.30
2022-07-31T23:55:09.911Z,2.60
2022-07-31T23:57:36.704Z,2.30
